Eugene, OR (97404)

6:56 PM PDT on September 19, 2014 (GMT -0700)
Santa Clara | Change Station
CLOSE
Current Station
Personal Weather Station
Location: Eugene, OR
Elevation: 406 ft
Nearby Weather Stations

Elev 406 ft 44.11 °N, 123.15 °W | Updated 0 second ago

Clear
Clear
76.5 °F
Feels Like 78 °F
N
5.0
Wind Variable Wind from NNW
Gusts 11.0 mph

Today
High -- | Low -- °F
--% Chance of Precip.
Yesterday
High -- | Low -- °F
Precip. -- in
6:56 AM 7:15 PM
Waning Crescent, 15% visible
Pressure 29.99 in
Visibility 10.0 miles
Clouds Few 25000 ft
Heat Index 78 °F
Dew Point 49 °F
Humidity 38%
Rainfall 0.00 in
Snow Depth 0 in , 0 in , 0 in
UV 1 out of 12
Pollen 1.80 out of 12
Ozone Good
PM2.5 Good
Flu Activity Not available.
METAR KEUG 200054Z 02015KT 10SM FEW250 28/07 A2999 RMK AO2 SLP154 T02780072

More Conditions Fewer Conditions

Pressure 29.99 in
Visibility 10.0 miles
Clouds Few 25000 ft
Heat Index 78 °F
Dew Point 49 °F
Humidity 38%
Rainfall 0.00 in
Snow Depth 0 in , 0 in , 0 in
UV 1 out of 12
Pollen 1.80 out of 12
Ozone Good
PM2.5 Good
Flu Activity Not available.
METAR KEUG 200054Z 02015KT 10SM FEW250 28/07 A2999 RMK AO2 SLP154 T02780072

More Conditions Fewer Conditions

10-Day Weather Forecast

Almanac

Astronomy

Sep. 19, 2014 Rise Set
Actual Time 6:56 AM PDT 7:15 PM PDT
Civil Twilight 6:27 AM PDT 7:44 PM PDT
Nautical Twilight 5:53 AM PDT 8:18 PM PDT
Astronomical Twilight 5:18 AM PDT 8:53 PM PDT
Moon 2:39 AM PDT (9/19) 4:53 PM PDT (9/19)
Length of Visible Light 13h 16m
Length of Day
12h 18m
Tomorrow will be 3m 0s shorter.
Waning Crescent, 15% of the Moon is Illuminated
Today
Waning Crescent
Sep 24
New
Oct 1
First Quarter
Oct 8
Full
Oct 15
Last Quarter

Today's Extremes

State Highs State Lows

Community

WunderPhotos

Upload Photos

1,754,760 photos uploaded!

WunderBlogs® & News

Nearby

Air Quality

  Air Quality AQ Index Pollutant
Yesterday Moderate
PM2.5
Yesterday Good
OZONE
Current Good
PM2.5
Current Good
OZONE
Friday Moderate
PM2.5
Saturday Moderate
PM2.5

Snow Depth

Station Depth Elevation
Madison Butte 0 in 5250 ft
Sevenmile Marsh 0 in 6200 ft
Strawberry 0 in 5760 ft
Greenpoint 1 in 3200 ft
Blue Mountain Spring 0 in 5900 ft

Earthquake Activity

City Distance Mag. Time & Date
No recent earthquake activity has been reported nearby.
Minimum magnitude displayed is 2.5.

Coastal Water Temperatures

Place Temperature
No Stations Reporting

Nearby Weather Stations